Hlavní strana
METAR-TAF:

METAR-TAF

Letiště :

Mezinárodní letiště Davida Budovatele

Kutaisi, Gruzie

zeměpisná šířka: 42-10-35N, zeměpisná délka: 042-28-57E, výška: 68 m

Aktuální stav počasí

Zpráva byla vytvořena před 14 minutami, v 08:30 UTC
Východoseverovýchodní vítr 17 kt
Teplota 24°C
Vlhkost vzduchu 34%
Tlak 1019 hPa
Viditelnost 10 km a více
Žádná oblačnost pod 1500 m, nevyskytují se cumulonimby.

METAR: UGKO 260830Z 07017KT CAVOK 24/07 Q1019 NOSIG

Čas: 12:44 (08:44 UTC)

Předpověď počasí

Zpráva byla vytvořena před 3 hodinami a 44 minutami, v 05:00 UTC
Předpověď platná od 26 v 06 UTC do 27 v 06 UTC
Východní vítr 7 kt
Viditelnost 10 km a více
Žádná oblačnost pod 1500 m, nevyskytují se cumulonimby.
Dočasný
od 26 v 06 UTC do 26 v 10 UTC
Východní vítr 18 kt
Dočasný
od 26 v 11 UTC do 26 v 16 UTC
Západní vítr 15 kt

TAF: UGKO 260500Z 2606/2706 08007KT CAVOK TX25/2612Z TN09/2621Z TEMPO 2606/2610 08018KT TEMPO 2611/2616 26015KT

Stav a předpovědi počasí z více než 4 000 letišť (zprávy METAR a TAF).

Červené a žluté tečky na mapě představují dostupné meteorologické stanice.

Když kurzor umístíte na tečku, zobrazí se název stanice.

Pak kliknutím zobrazíte stav a předpověď počasí.

Chcete-li změnit mapu, kliknutím na zelené tlačítko se znaménkem +mapu přiblížíte, kliknutím na zelené tlačítko se znaménkem – mapu oddálíte a kliknutím na zelené šipky přejdete na sousední mapy.


METAR-TAF: